sensor_id;sensor_type;location;lat;lon;timestamp;P1;durP1;ratioP1;P2;durP2;ratioP2
10041;SDS011;5061;49.068;12.058;2023-04-06T00:01:55;5.90;;;2.80;;
10041;SDS011;5061;49.068;12.058;2023-04-06T00:05:16;3.17;;;2.27;;
10041;SDS011;5061;49.068;12.058;2023-04-06T00:08:37;4.63;;;2.40;;
10041;SDS011;5061;49.068;12.058;2023-04-06T00:11:57;2.67;;;2.20;;
10041;SDS011;5061;49.068;12.058;2023-04-06T00:15:18;2.40;;;1.90;;
10041;SDS011;5061;49.068;12.058;2023-04-06T00:18:40;2.93;;;2.00;;
10041;SDS011;5061;49.068;12.058;2023-04-06T00:22:01;2.53;;;1.80;;
10041;SDS011;5061;49.068;12.058;2023-04-06T00:25:22;2.60;;;1.40;;
10041;SDS011;5061;49.068;12.058;2023-04-06T00:28:42;2.10;;;1.73;;
10041;SDS011;5061;49.068;12.058;2023-04-06T00:32:03;3.40;;;1.97;;
10041;SDS011;5061;49.068;12.058;2023-04-06T00:35:24;2.50;;;1.93;;
10041;SDS011;5061;49.068;12.058;2023-04-06T00:38:45;3.90;;;2.13;;
10041;SDS011;5061;49.068;12.058;2023-04-06T00:42:07;3.13;;;1.93;;
10041;SDS011;5061;49.068;12.058;2023-04-06T00:45:32;2.67;;;2.03;;
10041;SDS011;5061;49.068;12.058;2023-04-06T00:48:53;3.53;;;2.53;;
10041;SDS011;5061;49.068;12.058;2023-04-06T00:52:14;4.10;;;3.10;;
10041;SDS011;5061;49.068;12.058;2023-04-06T00:55:35;2.23;;;2.00;;
10041;SDS011;5061;49.068;12.058;2023-04-06T00:58:56;2.87;;;2.27;;
10041;SDS011;5061;49.068;12.058;2023-04-06T01:02:17;2.80;;;2.30;;
10041;SDS011;5061;49.068;12.058;2023-04-06T01:05:37;3.63;;;2.63;;
10041;SDS011;5061;49.068;12.058;2023-04-06T01:09:00;4.33;;;3.50;;
10041;SDS011;5061;49.068;12.058;2023-04-06T01:12:21;4.03;;;2.40;;
10041;SDS011;5061;49.068;12.058;2023-04-06T01:15:41;5.30;;;2.83;;
10041;SDS011;5061;49.068;12.058;2023-04-06T01:19:09;3.87;;;2.43;;
10041;SDS011;5061;49.068;12.058;2023-04-06T01:22:31;3.27;;;2.00;;
10041;SDS011;5061;49.068;12.058;2023-04-06T01:25:52;2.90;;;1.97;;
10041;SDS011;5061;49.068;12.058;2023-04-06T01:29:12;2.63;;;2.03;;
10041;SDS011;5061;49.068;12.058;2023-04-06T01:32:33;2.60;;;2.03;;
10041;SDS011;5061;49.068;12.058;2023-04-06T01:35:54;4.00;;;2.23;;
10041;SDS011;5061;49.068;12.058;2023-04-06T01:39:14;2.50;;;1.93;;
10041;SDS011;5061;49.068;12.058;2023-04-06T01:42:35;4.17;;;2.30;;
10041;SDS011;5061;49.068;12.058;2023-04-06T01:45:56;3.80;;;2.93;;
10041;SDS011;5061;49.068;12.058;2023-04-06T01:49:16;2.63;;;2.17;;
10041;SDS011;5061;49.068;12.058;2023-04-06T01:52:37;3.33;;;2.33;;
10041;SDS011;5061;49.068;12.058;2023-04-06T01:55:58;4.33;;;3.00;;
10041;SDS011;5061;49.068;12.058;2023-04-06T01:59:19;4.77;;;3.10;;
10041;SDS011;5061;49.068;12.058;2023-04-06T02:02:39;5.60;;;2.90;;
10041;SDS011;5061;49.068;12.058;2023-04-06T02:06:00;5.27;;;2.90;;
10041;SDS011;5061;49.068;12.058;2023-04-06T02:09:21;4.10;;;2.67;;
10041;SDS011;5061;49.068;12.058;2023-04-06T02:12:41;4.33;;;2.40;;
10041;SDS011;5061;49.068;12.058;2023-04-06T02:16:02;3.83;;;2.73;;
10041;SDS011;5061;49.068;12.058;2023-04-06T02:19:23;3.73;;;2.40;;
10041;SDS011;5061;49.068;12.058;2023-04-06T02:22:43;3.93;;;2.47;;
10041;SDS011;5061;49.068;12.058;2023-04-06T02:26:04;4.03;;;2.70;;
10041;SDS011;5061;49.068;12.058;2023-04-06T02:29:25;3.57;;;2.70;;
10041;SDS011;5061;49.068;12.058;2023-04-06T02:32:46;2.40;;;1.90;;
10041;SDS011;5061;49.068;12.058;2023-04-06T02:36:06;2.80;;;2.13;;
10041;SDS011;5061;49.068;12.058;2023-04-06T02:39:27;5.13;;;2.90;;
10041;SDS011;5061;49.068;12.058;2023-04-06T02:42:48;4.70;;;2.27;;
10041;SDS011;5061;49.068;12.058;2023-04-06T02:46:08;2.90;;;2.10;;
10041;SDS011;5061;49.068;12.058;2023-04-06T02:49:29;3.50;;;2.43;;
10041;SDS011;5061;49.068;12.058;2023-04-06T02:52:51;4.80;;;2.50;;
10041;SDS011;5061;49.068;12.058;2023-04-06T02:56:12;6.60;;;2.10;;
10041;SDS011;5061;49.068;12.058;2023-04-06T02:59:33;3.90;;;2.53;;
10041;SDS011;5061;49.068;12.058;2023-04-06T03:02:54;3.97;;;2.90;;
10041;SDS011;5061;49.068;12.058;2023-04-06T03:06:15;5.10;;;3.13;;
10041;SDS011;5061;49.068;12.058;2023-04-06T03:09:36;3.30;;;2.00;;
10041;SDS011;5061;49.068;12.058;2023-04-06T03:12:57;2.00;;;1.87;;
10041;SDS011;5061;49.068;12.058;2023-04-06T03:16:18;2.90;;;1.97;;
10041;SDS011;5061;49.068;12.058;2023-04-06T03:19:38;3.07;;;2.53;;
10041;SDS011;5061;49.068;12.058;2023-04-06T03:22:59;3.70;;;2.00;;
10041;SDS011;5061;49.068;12.058;2023-04-06T03:26:20;4.50;;;2.50;;
10041;SDS011;5061;49.068;12.058;2023-04-06T03:29:42;3.77;;;2.57;;
10041;SDS011;5061;49.068;12.058;2023-04-06T03:33:02;5.37;;;2.90;;
10041;SDS011;5061;49.068;12.058;2023-04-06T03:36:23;6.10;;;2.60;;
10041;SDS011;5061;49.068;12.058;2023-04-06T03:39:45;4.83;;;3.20;;
10041;SDS011;5061;49.068;12.058;2023-04-06T03:43:06;8.13;;;3.57;;
10041;SDS011;5061;49.068;12.058;2023-04-06T03:46:26;5.90;;;2.80;;
10041;SDS011;5061;49.068;12.058;2023-04-06T03:49:47;6.33;;;3.23;;
10041;SDS011;5061;49.068;12.058;2023-04-06T03:53:08;6.20;;;3.63;;
10041;SDS011;5061;49.068;12.058;2023-04-06T03:56:28;3.23;;;2.53;;
10041;SDS011;5061;49.068;12.058;2023-04-06T03:59:49;9.70;;;3.23;;
10041;SDS011;5061;49.068;12.058;2023-04-06T04:03:10;5.10;;;2.87;;
10041;SDS011;5061;49.068;12.058;2023-04-06T04:06:30;4.87;;;2.97;;
10041;SDS011;5061;49.068;12.058;2023-04-06T04:09:51;4.70;;;3.53;;
10041;SDS011;5061;49.068;12.058;2023-04-06T04:13:12;3.67;;;2.60;;
10041;SDS011;5061;49.068;12.058;2023-04-06T04:16:32;4.27;;;2.83;;
10041;SDS011;5061;49.068;12.058;2023-04-06T04:19:53;6.80;;;2.93;;
10041;SDS011;5061;49.068;12.058;2023-04-06T04:23:14;5.27;;;3.43;;
10041;SDS011;5061;49.068;12.058;2023-04-06T04:26:34;4.03;;;2.47;;
10041;SDS011;5061;49.068;12.058;2023-04-06T04:29:55;3.17;;;2.33;;
10041;SDS011;5061;49.068;12.058;2023-04-06T04:33:15;2.80;;;2.27;;
10041;SDS011;5061;49.068;12.058;2023-04-06T04:36:36;2.60;;;1.83;;
10041;SDS011;5061;49.068;12.058;2023-04-06T04:39:57;2.90;;;1.83;;
10041;SDS011;5061;49.068;12.058;2023-04-06T04:43:17;2.33;;;1.90;;
10041;SDS011;5061;49.068;12.058;2023-04-06T04:46:38;2.77;;;1.80;;
10041;SDS011;5061;49.068;12.058;2023-04-06T04:49:59;3.63;;;1.50;;
10041;SDS011;5061;49.068;12.058;2023-04-06T04:53:19;2.40;;;1.80;;
10041;SDS011;5061;49.068;12.058;2023-04-06T04:56:40;2.17;;;1.83;;
10041;SDS011;5061;49.068;12.058;2023-04-06T05:00:01;2.70;;;2.10;;
10041;SDS011;5061;49.068;12.058;2023-04-06T05:03:23;2.70;;;2.10;;
10041;SDS011;5061;49.068;12.058;2023-04-06T05:06:47;2.70;;;2.13;;
10041;SDS011;5061;49.068;12.058;2023-04-06T05:10:07;3.37;;;2.23;;
10041;SDS011;5061;49.068;12.058;2023-04-06T05:13:29;5.70;;;2.40;;
10041;SDS011;5061;49.068;12.058;2023-04-06T05:16:50;4.30;;;3.13;;
10041;SDS011;5061;49.068;12.058;2023-04-06T05:20:11;3.90;;;2.37;;
10041;SDS011;5061;49.068;12.058;2023-04-06T05:23:32;3.93;;;2.30;;
10041;SDS011;5061;49.068;12.058;2023-04-06T05:26:53;4.13;;;2.60;;
10041;SDS011;5061;49.068;12.058;2023-04-06T05:30:13;2.70;;;2.20;;
10041;SDS011;5061;49.068;12.058;2023-04-06T05:33:34;3.83;;;2.40;;
10041;SDS011;5061;49.068;12.058;2023-04-06T05:36:55;5.03;;;3.00;;
10041;SDS011;5061;49.068;12.058;2023-04-06T05:40:16;2.53;;;2.33;;
10041;SDS011;5061;49.068;12.058;2023-04-06T05:43:36;3.27;;;2.47;;
10041;SDS011;5061;49.068;12.058;2023-04-06T05:46:57;4.60;;;2.07;;
10041;SDS011;5061;49.068;12.058;2023-04-06T05:50:18;2.70;;;2.30;;
10041;SDS011;5061;49.068;12.058;2023-04-06T05:53:38;2.17;;;1.80;;
10041;SDS011;5061;49.068;12.058;2023-04-06T05:57:01;3.63;;;2.07;;
10041;SDS011;5061;49.068;12.058;2023-04-06T06:00:22;3.63;;;2.37;;
10041;SDS011;5061;49.068;12.058;2023-04-06T06:03:42;2.60;;;2.17;;
10041;SDS011;5061;49.068;12.058;2023-04-06T06:07:03;3.03;;;1.63;;
10041;SDS011;5061;49.068;12.058;2023-04-06T06:10:24;4.50;;;1.80;;
10041;SDS011;5061;49.068;12.058;2023-04-06T06:13:44;2.30;;;1.90;;
10041;SDS011;5061;49.068;12.058;2023-04-06T06:17:05;4.83;;;2.83;;
10041;SDS011;5061;49.068;12.058;2023-04-06T06:20:26;8.13;;;3.93;;
10041;SDS011;5061;49.068;12.058;2023-04-06T06:23:46;3.90;;;2.80;;
10041;SDS011;5061;49.068;12.058;2023-04-06T06:27:09;4.20;;;2.67;;
10041;SDS011;5061;49.068;12.058;2023-04-06T06:30:29;6.80;;;4.07;;
10041;SDS011;5061;49.068;12.058;2023-04-06T06:33:50;5.20;;;3.73;;
10041;SDS011;5061;49.068;12.058;2023-04-06T06:37:11;6.53;;;3.80;;
10041;SDS011;5061;49.068;12.058;2023-04-06T06:40:32;9.87;;;4.87;;
10041;SDS011;5061;49.068;12.058;2023-04-06T06:43:53;8.73;;;4.57;;
10041;SDS011;5061;49.068;12.058;2023-04-06T06:47:14;8.10;;;3.90;;
10041;SDS011;5061;49.068;12.058;2023-04-06T06:50:35;6.57;;;3.90;;
10041;SDS011;5061;49.068;12.058;2023-04-06T06:53:55;4.33;;;3.40;;
10041;SDS011;5061;49.068;12.058;2023-04-06T06:57:16;4.27;;;3.20;;
10041;SDS011;5061;49.068;12.058;2023-04-06T07:00:37;7.63;;;4.33;;
10041;SDS011;5061;49.068;12.058;2023-04-06T07:03:57;5.63;;;3.50;;
10041;SDS011;5061;49.068;12.058;2023-04-06T07:07:18;5.67;;;4.20;;
10041;SDS011;5061;49.068;12.058;2023-04-06T07:10:39;8.10;;;4.97;;
10041;SDS011;5061;49.068;12.058;2023-04-06T07:13:59;4.97;;;3.70;;
10041;SDS011;5061;49.068;12.058;2023-04-06T07:17:20;5.20;;;3.80;;
10041;SDS011;5061;49.068;12.058;2023-04-06T07:20:41;5.87;;;2.80;;
10041;SDS011;5061;49.068;12.058;2023-04-06T07:24:01;3.83;;;2.90;;
10041;SDS011;5061;49.068;12.058;2023-04-06T07:27:22;5.67;;;3.87;;
10041;SDS011;5061;49.068;12.058;2023-04-06T07:30:43;4.60;;;3.00;;
10041;SDS011;5061;49.068;12.058;2023-04-06T07:34:03;4.30;;;3.43;;
10041;SDS011;5061;49.068;12.058;2023-04-06T07:37:24;5.53;;;4.10;;
10041;SDS011;5061;49.068;12.058;2023-04-06T07:40:45;6.63;;;2.97;;
10041;SDS011;5061;49.068;12.058;2023-04-06T07:44:05;5.50;;;3.60;;
10041;SDS011;5061;49.068;12.058;2023-04-06T07:47:26;4.80;;;3.60;;
10041;SDS011;5061;49.068;12.058;2023-04-06T07:50:47;6.57;;;3.13;;
10041;SDS011;5061;49.068;12.058;2023-04-06T07:54:08;5.00;;;3.40;;
10041;SDS011;5061;49.068;12.058;2023-04-06T07:57:28;6.70;;;4.00;;
10041;SDS011;5061;49.068;12.058;2023-04-06T08:00:49;3.40;;;2.43;;
10041;SDS011;5061;49.068;12.058;2023-04-06T08:04:10;5.03;;;3.10;;
10041;SDS011;5061;49.068;12.058;2023-04-06T08:07:30;3.80;;;2.60;;
10041;SDS011;5061;49.068;12.058;2023-04-06T08:10:51;2.97;;;2.40;;
10041;SDS011;5061;49.068;12.058;2023-04-06T08:14:12;3.33;;;2.60;;
10041;SDS011;5061;49.068;12.058;2023-04-06T08:17:32;4.40;;;2.80;;
10041;SDS011;5061;49.068;12.058;2023-04-06T08:20:54;3.97;;;3.20;;
10041;SDS011;5061;49.068;12.058;2023-04-06T08:24:15;3.70;;;2.90;;
10041;SDS011;5061;49.068;12.058;2023-04-06T08:27:36;6.27;;;3.53;;
10041;SDS011;5061;49.068;12.058;2023-04-06T08:30:56;5.43;;;3.50;;
10041;SDS011;5061;49.068;12.058;2023-04-06T08:34:17;6.23;;;3.70;;
10041;SDS011;5061;49.068;12.058;2023-04-06T08:37:38;4.97;;;3.20;;
10041;SDS011;5061;49.068;12.058;2023-04-06T08:40:58;4.67;;;3.53;;
10041;SDS011;5061;49.068;12.058;2023-04-06T08:44:19;3.90;;;3.23;;
10041;SDS011;5061;49.068;12.058;2023-04-06T08:47:40;5.63;;;3.47;;
10041;SDS011;5061;49.068;12.058;2023-04-06T08:51:01;5.63;;;3.60;;
10041;SDS011;5061;49.068;12.058;2023-04-06T08:54:22;6.57;;;4.60;;
10041;SDS011;5061;49.068;12.058;2023-04-06T08:57:44;5.47;;;3.70;;
10041;SDS011;5061;49.068;12.058;2023-04-06T09:01:07;5.00;;;3.20;;
10041;SDS011;5061;49.068;12.058;2023-04-06T09:04:34;5.13;;;3.30;;
10041;SDS011;5061;49.068;12.058;2023-04-06T09:07:56;7.60;;;4.10;;
10041;SDS011;5061;49.068;12.058;2023-04-06T09:11:17;3.40;;;2.80;;
10041;SDS011;5061;49.068;12.058;2023-04-06T09:14:38;4.73;;;3.30;;
10041;SDS011;5061;49.068;12.058;2023-04-06T09:18:00;5.57;;;3.77;;
10041;SDS011;5061;49.068;12.058;2023-04-06T09:21:21;5.70;;;3.57;;
10041;SDS011;5061;49.068;12.058;2023-04-06T09:24:42;6.10;;;3.87;;
10041;SDS011;5061;49.068;12.058;2023-04-06T09:28:10;3.93;;;3.10;;
10041;SDS011;5061;49.068;12.058;2023-04-06T09:31:31;5.07;;;3.17;;
10041;SDS011;5061;49.068;12.058;2023-04-06T09:35:04;4.50;;;2.87;;
10041;SDS011;5061;49.068;12.058;2023-04-06T09:38:28;3.57;;;3.07;;
10041;SDS011;5061;49.068;12.058;2023-04-06T09:41:53;4.13;;;3.03;;
10041;SDS011;5061;49.068;12.058;2023-04-06T09:45:14;4.00;;;3.50;;
10041;SDS011;5061;49.068;12.058;2023-04-06T09:48:35;5.90;;;3.67;;
10041;SDS011;5061;49.068;12.058;2023-04-06T09:51:58;5.80;;;3.73;;
10041;SDS011;5061;49.068;12.058;2023-04-06T09:55:22;4.13;;;3.70;;
10041;SDS011;5061;49.068;12.058;2023-04-06T09:58:48;7.50;;;3.50;;
10041;SDS011;5061;49.068;12.058;2023-04-06T10:02:15;5.53;;;4.07;;
10041;SDS011;5061;49.068;12.058;2023-04-06T10:05:57;3.87;;;3.07;;
10041;SDS011;5061;49.068;12.058;2023-04-06T10:09:23;4.63;;;3.20;;
10041;SDS011;5061;49.068;12.058;2023-04-06T10:12:48;5.03;;;3.40;;
10041;SDS011;5061;49.068;12.058;2023-04-06T10:16:09;5.70;;;3.70;;
10041;SDS011;5061;49.068;12.058;2023-04-06T10:27:02;5.20;;;2.83;;
10041;SDS011;5061;49.068;12.058;2023-04-06T10:30:24;3.90;;;3.50;;
10041;SDS011;5061;49.068;12.058;2023-04-06T10:33:53;5.50;;;4.03;;
10041;SDS011;5061;49.068;12.058;2023-04-06T10:37:17;5.70;;;4.20;;
10041;SDS011;5061;49.068;12.058;2023-04-06T10:40:40;5.53;;;4.63;;
10041;SDS011;5061;49.068;12.058;2023-04-06T10:44:03;4.97;;;4.13;;
10041;SDS011;5061;49.068;12.058;2023-04-06T10:47:23;4.20;;;3.70;;
10041;SDS011;5061;49.068;12.058;2023-04-06T10:50:48;4.20;;;3.30;;
10041;SDS011;5061;49.068;12.058;2023-04-06T10:54:10;4.50;;;3.17;;
10041;SDS011;5061;49.068;12.058;2023-04-06T10:57:32;4.33;;;3.60;;
10041;SDS011;5061;49.068;12.058;2023-04-06T11:00:53;4.13;;;3.20;;
10041;SDS011;5061;49.068;12.058;2023-04-06T11:04:20;4.20;;;3.47;;
10041;SDS011;5061;49.068;12.058;2023-04-06T11:07:40;5.47;;;3.33;;
10041;SDS011;5061;49.068;12.058;2023-04-06T11:11:05;4.57;;;3.53;;
10041;SDS011;5061;49.068;12.058;2023-04-06T11:14:29;3.60;;;3.10;;
10041;SDS011;5061;49.068;12.058;2023-04-06T11:17:50;4.23;;;3.07;;
10041;SDS011;5061;49.068;12.058;2023-04-06T11:21:11;4.00;;;3.40;;
10041;SDS011;5061;49.068;12.058;2023-04-06T11:24:31;4.60;;;3.80;;
10041;SDS011;5061;49.068;12.058;2023-04-06T11:27:52;6.50;;;4.63;;
10041;SDS011;5061;49.068;12.058;2023-04-06T11:31:13;4.90;;;4.23;;
10041;SDS011;5061;49.068;12.058;2023-04-06T11:34:35;5.93;;;3.90;;
10041;SDS011;5061;49.068;12.058;2023-04-06T11:37:58;4.60;;;3.90;;
10041;SDS011;5061;49.068;12.058;2023-04-06T11:41:23;4.73;;;3.63;;
10041;SDS011;5061;49.068;12.058;2023-04-06T11:44:46;5.53;;;3.73;;
10041;SDS011;5061;49.068;12.058;2023-04-06T11:48:16;9.63;;;5.10;;
10041;SDS011;5061;49.068;12.058;2023-04-06T11:51:38;4.27;;;3.87;;
10041;SDS011;5061;49.068;12.058;2023-04-06T11:55:09;6.43;;;4.80;;
10041;SDS011;5061;49.068;12.058;2023-04-06T11:58:34;5.97;;;3.93;;
10041;SDS011;5061;49.068;12.058;2023-04-06T12:01:56;3.90;;;3.50;;
10041;SDS011;5061;49.068;12.058;2023-04-06T12:05:17;4.07;;;3.43;;
10041;SDS011;5061;49.068;12.058;2023-04-06T12:08:38;4.23;;;3.83;;
10041;SDS011;5061;49.068;12.058;2023-04-06T12:11:59;4.70;;;3.53;;
10041;SDS011;5061;49.068;12.058;2023-04-06T12:15:20;3.93;;;3.17;;
10041;SDS011;5061;49.068;12.058;2023-04-06T12:18:41;6.93;;;4.70;;
10041;SDS011;5061;49.068;12.058;2023-04-06T12:22:02;4.63;;;4.10;;
10041;SDS011;5061;49.068;12.058;2023-04-06T12:25:22;5.33;;;4.20;;
10041;SDS011;5061;49.068;12.058;2023-04-06T12:28:43;5.23;;;3.63;;
10041;SDS011;5061;49.068;12.058;2023-04-06T12:32:04;3.70;;;3.20;;
10041;SDS011;5061;49.068;12.058;2023-04-06T12:35:26;4.30;;;3.90;;
10041;SDS011;5061;49.068;12.058;2023-04-06T12:38:47;5.67;;;4.40;;
10041;SDS011;5061;49.068;12.058;2023-04-06T12:42:08;3.97;;;3.50;;
10041;SDS011;5061;49.068;12.058;2023-04-06T12:45:30;3.90;;;3.27;;
10041;SDS011;5061;49.068;12.058;2023-04-06T12:48:51;5.90;;;4.10;;
10041;SDS011;5061;49.068;12.058;2023-04-06T12:52:16;7.40;;;4.10;;
10041;SDS011;5061;49.068;12.058;2023-04-06T12:55:37;6.97;;;4.77;;
10041;SDS011;5061;49.068;12.058;2023-04-06T12:58:57;6.27;;;4.63;;
10041;SDS011;5061;49.068;12.058;2023-04-06T13:02:18;4.20;;;3.70;;
10041;SDS011;5061;49.068;12.058;2023-04-06T13:05:45;4.93;;;3.60;;
10041;SDS011;5061;49.068;12.058;2023-04-06T13:09:06;4.37;;;3.50;;
10041;SDS011;5061;49.068;12.058;2023-04-06T13:12:27;5.27;;;4.53;;
10041;SDS011;5061;49.068;12.058;2023-04-06T13:15:48;6.90;;;4.10;;
10041;SDS011;5061;49.068;12.058;2023-04-06T13:19:10;4.37;;;3.70;;
10041;SDS011;5061;49.068;12.058;2023-04-06T13:22:31;3.57;;;3.17;;
10041;SDS011;5061;49.068;12.058;2023-04-06T13:25:58;6.17;;;3.70;;
10041;SDS011;5061;49.068;12.058;2023-04-06T13:29:23;5.80;;;4.37;;
10041;SDS011;5061;49.068;12.058;2023-04-06T13:32:44;4.03;;;3.13;;
10041;SDS011;5061;49.068;12.058;2023-04-06T13:36:05;4.70;;;3.73;;
10041;SDS011;5061;49.068;12.058;2023-04-06T13:39:27;3.77;;;3.27;;
10041;SDS011;5061;49.068;12.058;2023-04-06T13:42:47;4.00;;;3.07;;
10041;SDS011;5061;49.068;12.058;2023-04-06T13:46:08;4.03;;;3.60;;
10041;SDS011;5061;49.068;12.058;2023-04-06T13:49:28;3.80;;;3.00;;
10041;SDS011;5061;49.068;12.058;2023-04-06T13:52:50;3.70;;;2.90;;
10041;SDS011;5061;49.068;12.058;2023-04-06T13:56:10;3.43;;;3.13;;
10041;SDS011;5061;49.068;12.058;2023-04-06T13:59:32;4.33;;;3.67;;
10041;SDS011;5061;49.068;12.058;2023-04-06T14:02:54;3.90;;;3.47;;
10041;SDS011;5061;49.068;12.058;2023-04-06T14:06:15;3.20;;;2.90;;
10041;SDS011;5061;49.068;12.058;2023-04-06T14:09:35;3.00;;;2.70;;
10041;SDS011;5061;49.068;12.058;2023-04-06T14:12:56;4.00;;;3.60;;
10041;SDS011;5061;49.068;12.058;2023-04-06T14:16:18;5.23;;;3.97;;
10041;SDS011;5061;49.068;12.058;2023-04-06T14:19:39;4.23;;;3.20;;
10041;SDS011;5061;49.068;12.058;2023-04-06T14:23:00;3.50;;;3.20;;
10041;SDS011;5061;49.068;12.058;2023-04-06T14:26:21;5.33;;;4.20;;
10041;SDS011;5061;49.068;12.058;2023-04-06T14:29:42;5.43;;;3.97;;
10041;SDS011;5061;49.068;12.058;2023-04-06T14:33:03;5.53;;;3.60;;
10041;SDS011;5061;49.068;12.058;2023-04-06T14:36:24;4.67;;;3.47;;
10041;SDS011;5061;49.068;12.058;2023-04-06T14:39:47;3.93;;;3.00;;
10041;SDS011;5061;49.068;12.058;2023-04-06T14:43:08;6.73;;;4.57;;
10041;SDS011;5061;49.068;12.058;2023-04-06T14:46:28;4.50;;;4.10;;
10041;SDS011;5061;49.068;12.058;2023-04-06T14:49:50;4.50;;;3.63;;
10041;SDS011;5061;49.068;12.058;2023-04-06T14:53:11;6.13;;;3.97;;
10041;SDS011;5061;49.068;12.058;2023-04-06T14:56:33;4.40;;;3.77;;
10041;SDS011;5061;49.068;12.058;2023-04-06T14:59:53;6.17;;;3.87;;
10041;SDS011;5061;49.068;12.058;2023-04-06T15:03:14;4.40;;;3.57;;
10041;SDS011;5061;49.068;12.058;2023-04-06T15:06:35;3.63;;;2.73;;
10041;SDS011;5061;49.068;12.058;2023-04-06T15:09:57;2.60;;;2.40;;
10041;SDS011;5061;49.068;12.058;2023-04-06T15:13:17;2.87;;;2.40;;
10041;SDS011;5061;49.068;12.058;2023-04-06T15:16:38;2.63;;;2.40;;
10041;SDS011;5061;49.068;12.058;2023-04-06T15:19:59;2.60;;;2.40;;
10041;SDS011;5061;49.068;12.058;2023-04-06T15:23:19;3.57;;;3.20;;
10041;SDS011;5061;49.068;12.058;2023-04-06T15:26:40;2.67;;;2.47;;
10041;SDS011;5061;49.068;12.058;2023-04-06T15:30:01;2.43;;;2.23;;
10041;SDS011;5061;49.068;12.058;2023-04-06T15:33:21;2.50;;;2.30;;
10041;SDS011;5061;49.068;12.058;2023-04-06T15:36:42;3.00;;;2.47;;
10041;SDS011;5061;49.068;12.058;2023-04-06T15:40:03;3.80;;;2.83;;
10041;SDS011;5061;49.068;12.058;2023-04-06T15:43:24;3.80;;;2.73;;
10041;SDS011;5061;49.068;12.058;2023-04-06T15:46:45;5.53;;;2.87;;
10041;SDS011;5061;49.068;12.058;2023-04-06T15:50:06;2.50;;;2.30;;
10041;SDS011;5061;49.068;12.058;2023-04-06T15:53:27;2.83;;;2.53;;
10041;SDS011;5061;49.068;12.058;2023-04-06T15:56:48;3.90;;;2.83;;
10041;SDS011;5061;49.068;12.058;2023-04-06T16:00:10;6.43;;;3.17;;
10041;SDS011;5061;49.068;12.058;2023-04-06T16:03:31;5.73;;;3.03;;
10041;SDS011;5061;49.068;12.058;2023-04-06T16:06:51;3.97;;;3.00;;
10041;SDS011;5061;49.068;12.058;2023-04-06T16:10:12;3.83;;;2.43;;
10041;SDS011;5061;49.068;12.058;2023-04-06T16:13:32;3.90;;;2.73;;
10041;SDS011;5061;49.068;12.058;2023-04-06T16:16:53;3.67;;;3.00;;
10041;SDS011;5061;49.068;12.058;2023-04-06T16:20:14;2.90;;;2.60;;
10041;SDS011;5061;49.068;12.058;2023-04-06T16:23:35;4.63;;;3.20;;
10041;SDS011;5061;49.068;12.058;2023-04-06T16:26:57;4.00;;;3.03;;
10041;SDS011;5061;49.068;12.058;2023-04-06T16:30:17;6.20;;;3.47;;
10041;SDS011;5061;49.068;12.058;2023-04-06T16:33:38;4.37;;;3.30;;
10041;SDS011;5061;49.068;12.058;2023-04-06T16:37:01;3.50;;;3.03;;
10041;SDS011;5061;49.068;12.058;2023-04-06T16:40:21;6.60;;;3.53;;
10041;SDS011;5061;49.068;12.058;2023-04-06T16:43:42;4.20;;;3.50;;
10041;SDS011;5061;49.068;12.058;2023-04-06T16:47:02;5.00;;;3.40;;
10041;SDS011;5061;49.068;12.058;2023-04-06T16:50:23;4.83;;;3.50;;
10041;SDS011;5061;49.068;12.058;2023-04-06T16:53:44;4.33;;;3.40;;
10041;SDS011;5061;49.068;12.058;2023-04-06T16:57:06;4.30;;;3.83;;
10041;SDS011;5061;49.068;12.058;2023-04-06T17:00:27;4.43;;;3.67;;
10041;SDS011;5061;49.068;12.058;2023-04-06T17:03:47;3.50;;;3.00;;
10041;SDS011;5061;49.068;12.058;2023-04-06T17:07:08;3.63;;;3.23;;
10041;SDS011;5061;49.068;12.058;2023-04-06T17:10:30;4.93;;;3.20;;
10041;SDS011;5061;49.068;12.058;2023-04-06T17:13:50;3.60;;;3.10;;
10041;SDS011;5061;49.068;12.058;2023-04-06T17:17:11;3.90;;;2.80;;
10041;SDS011;5061;49.068;12.058;2023-04-06T17:20:31;3.40;;;3.03;;
10041;SDS011;5061;49.068;12.058;2023-04-06T17:23:54;3.00;;;2.70;;
10041;SDS011;5061;49.068;12.058;2023-04-06T17:27:14;3.43;;;2.70;;
10041;SDS011;5061;49.068;12.058;2023-04-06T17:30:35;4.60;;;3.57;;
10041;SDS011;5061;49.068;12.058;2023-04-06T17:33:56;2.83;;;2.53;;
10041;SDS011;5061;49.068;12.058;2023-04-06T17:37:16;4.67;;;3.20;;
10041;SDS011;5061;49.068;12.058;2023-04-06T17:40:37;3.53;;;3.10;;
10041;SDS011;5061;49.068;12.058;2023-04-06T17:43:58;3.87;;;3.47;;
10041;SDS011;5061;49.068;12.058;2023-04-06T17:47:18;4.10;;;2.77;;
10041;SDS011;5061;49.068;12.058;2023-04-06T17:50:39;3.03;;;2.73;;
10041;SDS011;5061;49.068;12.058;2023-04-06T17:54:00;3.90;;;2.87;;
10041;SDS011;5061;49.068;12.058;2023-04-06T17:57:20;2.93;;;2.50;;
10041;SDS011;5061;49.068;12.058;2023-04-06T18:00:41;4.40;;;3.33;;
10041;SDS011;5061;49.068;12.058;2023-04-06T18:04:02;4.13;;;3.00;;
10041;SDS011;5061;49.068;12.058;2023-04-06T18:07:22;3.37;;;2.50;;
10041;SDS011;5061;49.068;12.058;2023-04-06T18:10:43;3.53;;;2.70;;
10041;SDS011;5061;49.068;12.058;2023-04-06T18:14:08;4.23;;;3.30;;
10041;SDS011;5061;49.068;12.058;2023-04-06T18:17:31;3.13;;;2.80;;
10041;SDS011;5061;49.068;12.058;2023-04-06T18:20:52;2.90;;;2.60;;
10041;SDS011;5061;49.068;12.058;2023-04-06T18:24:12;5.43;;;3.50;;
10041;SDS011;5061;49.068;12.058;2023-04-06T18:27:33;4.10;;;2.97;;
10041;SDS011;5061;49.068;12.058;2023-04-06T18:30:54;4.00;;;3.07;;
10041;SDS011;5061;49.068;12.058;2023-04-06T18:34:15;5.10;;;3.10;;
10041;SDS011;5061;49.068;12.058;2023-04-06T18:37:36;5.47;;;3.23;;
10041;SDS011;5061;49.068;12.058;2023-04-06T18:40:57;5.43;;;3.37;;
10041;SDS011;5061;49.068;12.058;2023-04-06T18:44:18;6.50;;;3.93;;
10041;SDS011;5061;49.068;12.058;2023-04-06T18:47:38;4.10;;;3.50;;
10041;SDS011;5061;49.068;12.058;2023-04-06T18:50:59;4.10;;;2.97;;
10041;SDS011;5061;49.068;12.058;2023-04-06T18:54:22;5.10;;;3.73;;
10041;SDS011;5061;49.068;12.058;2023-04-06T18:57:42;5.20;;;3.90;;
10041;SDS011;5061;49.068;12.058;2023-04-06T19:01:03;4.77;;;3.30;;
10041;SDS011;5061;49.068;12.058;2023-04-06T19:04:23;7.40;;;4.30;;
10041;SDS011;5061;49.068;12.058;2023-04-06T19:07:44;7.13;;;4.73;;
10041;SDS011;5061;49.068;12.058;2023-04-06T19:11:11;6.67;;;5.20;;
10041;SDS011;5061;49.068;12.058;2023-04-06T19:14:31;10.27;;;6.00;;
10041;SDS011;5061;49.068;12.058;2023-04-06T19:17:52;8.87;;;5.90;;
10041;SDS011;5061;49.068;12.058;2023-04-06T19:21:23;5.70;;;4.40;;
10041;SDS011;5061;49.068;12.058;2023-04-06T19:24:46;7.97;;;5.20;;
10041;SDS011;5061;49.068;12.058;2023-04-06T19:28:08;7.70;;;4.70;;
10041;SDS011;5061;49.068;12.058;2023-04-06T19:31:29;8.50;;;5.27;;
10041;SDS011;5061;49.068;12.058;2023-04-06T19:34:50;9.50;;;5.40;;
10041;SDS011;5061;49.068;12.058;2023-04-06T19:38:11;7.97;;;5.60;;
10041;SDS011;5061;49.068;12.058;2023-04-06T19:41:31;7.33;;;4.73;;
10041;SDS011;5061;49.068;12.058;2023-04-06T19:44:52;10.37;;;6.23;;
10041;SDS011;5061;49.068;12.058;2023-04-06T19:48:12;8.53;;;4.80;;
10041;SDS011;5061;49.068;12.058;2023-04-06T19:51:33;7.57;;;4.27;;
10041;SDS011;5061;49.068;12.058;2023-04-06T19:54:55;6.87;;;4.37;;
10041;SDS011;5061;49.068;12.058;2023-04-06T19:58:16;7.70;;;5.10;;
10041;SDS011;5061;49.068;12.058;2023-04-06T20:01:36;6.70;;;4.60;;
10041;SDS011;5061;49.068;12.058;2023-04-06T20:04:57;6.80;;;4.60;;
10041;SDS011;5061;49.068;12.058;2023-04-06T20:08:18;7.43;;;4.53;;
10041;SDS011;5061;49.068;12.058;2023-04-06T20:11:38;7.77;;;4.70;;
10041;SDS011;5061;49.068;12.058;2023-04-06T20:14:59;5.30;;;4.07;;
10041;SDS011;5061;49.068;12.058;2023-04-06T20:18:20;9.10;;;5.80;;
10041;SDS011;5061;49.068;12.058;2023-04-06T20:21:40;8.50;;;4.30;;